New Bedford Regional Airport
KEWB : now visible

Airfield :











YOU CAN JOIN US ON...

 
LOGIN :

Register | Disclaimer

   EN    FR    IT 

 









Legend :    VFR   Marginal VFR   IFR   Intensive IFR   Very Intensive IFR
Visi :
Ceiling :
>= 8 km
>= 3000ft
5 to 8 km
1000 to 3000 ft
1500m to 5 km
500 to 1000 ft
800 to 1500m
200 to 500 ft
< 800m
< 200 ft
Symbols :   Thunderstorms  Fog  Heavy snow  Heavy precipitations  Wind > 20 kt






- Airport Elevation : 80 ft
- IATA code : EWB


KEWB - New Bedford Regional

CURRENT METAR :
  • 010236Z 16025G35KT 7SM OVC009 17/16 A2959 RMK AO2 PK WND 15035/0234 RAE14 P0000 T01670161 $

EXPIRED METARs :
  • 010153Z 17021G38KT 7SM -RA FEW008 BKN013 OVC021 17/ A2960 RMK AO2 PK WND 14040/0117 RAE41B52 SLP024 P0014 T0167 $
  • 010145Z 17023G36KT 8SM FEW008 BKN013 OVC021 17/ A2960 RMK AO2 PK WND 14040/0117 RAE41 PRESRR P0014 T0167 $
  • 010122Z 16029G40KT 4SM -RA OVC007 16/ A2958 RMK AO2 PK WND 14040/0117 P0013 T0161 $
  • 010106Z 15025G35KT 2 1/2SM RA BR OVC007 16/16 A2959 RMK AO2 PK WND 15035/0106 P0008 T01610156 $
  • 010053Z 16017G38KT 1 1/2SM R05/4000VP6000FT +RA BR OVC007 16/16 A2961 RMK AO2 PK WND 14039/0029 SLP026 P0027 T01610156 $
  • 010026Z 16024G38KT 3SM RA BR OVC008 16/15 A2961 RMK AO2 PK WND 14038/0026 CIG 006V013 P0007 T01560150 $

TAF N/A
KZBW FIR / North America



MET'MAP, your aeronautical weather chart ! - Copyright ORBIFLY December 2007 - Disclaimer

ORBIFLY MET'MAP TEAM :

Programming & Development : Alexandra Zaïnal
Concept & original design : Baudouin d'Aumeries
Assistance for programming : Marc-Olivier Méhu
Technical & hardware support : Manuel Goepfert

Contact : metmap@orbifly.com




SOURCES & CREDITS :

   NOAA       Earth
Advisory